Amelia, Nebraska
Current Conditions -  °F | °C
As of 6:15 AM on Friday 21 Nov 2014 (Local Time) from KONL Reporting Station
Clear Clear  
Wind Chill: 13°   Ceiling: Unl
Heat Index: 26°   Visibility: 10mi
Dew Point: 21°   Wind: 16mph
Humidity: 82%   Direction: 190°S
Pressure: 30"   Gusts: NA
Location:  42.24°N, 98.91°W
Report Text: KONL 211215Z AUTO 19014KT 10SM CLR M04/M06 A3000 RMK AO2 T10361063
Loading
Personal Weather Stations






























Interactive Weather Map New forecast layout! Learn more

10-Day Weather Forecast

Advertisements
Track Severe Weather on mobile